sensor_id;sensor_type;location;lat;lon;timestamp;P1;durP1;ratioP1;P2;durP2;ratioP2
5900;SDS011;2976;49.764;9.796;2024-02-21T00:00:50;12.00;;;3.60;;
5900;SDS011;2976;49.764;9.796;2024-02-21T00:03:16;8.63;;;3.33;;
5900;SDS011;2976;49.764;9.796;2024-02-21T00:05:42;9.53;;;3.07;;
5900;SDS011;2976;49.764;9.796;2024-02-21T00:08:08;11.90;;;4.10;;
5900;SDS011;2976;49.764;9.796;2024-02-21T00:10:33;12.87;;;3.43;;
5900;SDS011;2976;49.764;9.796;2024-02-21T00:13:00;15.03;;;4.30;;
5900;SDS011;2976;49.764;9.796;2024-02-21T00:15:25;14.47;;;3.50;;
5900;SDS011;2976;49.764;9.796;2024-02-21T00:17:51;13.47;;;3.10;;
5900;SDS011;2976;49.764;9.796;2024-02-21T00:20:17;6.90;;;3.10;;
5900;SDS011;2976;49.764;9.796;2024-02-21T00:22:43;9.60;;;4.77;;
5900;SDS011;2976;49.764;9.796;2024-02-21T00:25:09;9.73;;;3.20;;
5900;SDS011;2976;49.764;9.796;2024-02-21T00:27:34;13.43;;;3.60;;
5900;SDS011;2976;49.764;9.796;2024-02-21T00:30:00;6.10;;;3.10;;
5900;SDS011;2976;49.764;9.796;2024-02-21T00:32:26;15.93;;;3.77;;
5900;SDS011;2976;49.764;9.796;2024-02-21T00:34:51;10.43;;;3.67;;
5900;SDS011;2976;49.764;9.796;2024-02-21T00:37:17;14.23;;;3.70;;
5900;SDS011;2976;49.764;9.796;2024-02-21T00:39:42;8.03;;;3.23;;
5900;SDS011;2976;49.764;9.796;2024-02-21T00:42:08;15.90;;;3.27;;
5900;SDS011;2976;49.764;9.796;2024-02-21T00:44:34;12.33;;;3.80;;
5900;SDS011;2976;49.764;9.796;2024-02-21T00:46:59;11.30;;;4.37;;
5900;SDS011;2976;49.764;9.796;2024-02-21T00:49:25;14.40;;;4.50;;
5900;SDS011;2976;49.764;9.796;2024-02-21T00:51:50;17.63;;;4.37;;
5900;SDS011;2976;49.764;9.796;2024-02-21T00:54:16;17.03;;;4.20;;
5900;SDS011;2976;49.764;9.796;2024-02-21T00:56:42;10.50;;;3.60;;
5900;SDS011;2976;49.764;9.796;2024-02-21T00:59:07;10.67;;;4.20;;
5900;SDS011;2976;49.764;9.796;2024-02-21T01:01:33;10.97;;;3.63;;
5900;SDS011;2976;49.764;9.796;2024-02-21T01:03:58;15.93;;;3.47;;
5900;SDS011;2976;49.764;9.796;2024-02-21T01:06:25;7.83;;;4.00;;
5900;SDS011;2976;49.764;9.796;2024-02-21T01:08:50;10.43;;;3.70;;
5900;SDS011;2976;49.764;9.796;2024-02-21T01:11:16;8.47;;;3.73;;
5900;SDS011;2976;49.764;9.796;2024-02-21T01:13:41;10.37;;;3.50;;
5900;SDS011;2976;49.764;9.796;2024-02-21T01:16:07;21.43;;;3.70;;
5900;SDS011;2976;49.764;9.796;2024-02-21T01:18:33;9.53;;;3.80;;
5900;SDS011;2976;49.764;9.796;2024-02-21T01:20:59;8.63;;;3.40;;
5900;SDS011;2976;49.764;9.796;2024-02-21T01:23:25;19.53;;;4.43;;
5900;SDS011;2976;49.764;9.796;2024-02-21T01:25:51;17.67;;;4.43;;
5900;SDS011;2976;49.764;9.796;2024-02-21T01:28:17;15.97;;;4.60;;
5900;SDS011;2976;49.764;9.796;2024-02-21T01:30:43;24.47;;;4.23;;
5900;SDS011;2976;49.764;9.796;2024-02-21T01:33:08;13.30;;;4.50;;
5900;SDS011;2976;49.764;9.796;2024-02-21T01:35:34;10.00;;;5.30;;
5900;SDS011;2976;49.764;9.796;2024-02-21T01:38:00;12.97;;;5.03;;
5900;SDS011;2976;49.764;9.796;2024-02-21T01:40:26;19.13;;;5.00;;
5900;SDS011;2976;49.764;9.796;2024-02-21T01:42:52;13.10;;;3.70;;
5900;SDS011;2976;49.764;9.796;2024-02-21T01:45:21;10.57;;;4.60;;
5900;SDS011;2976;49.764;9.796;2024-02-21T01:47:47;14.87;;;4.00;;
5900;SDS011;2976;49.764;9.796;2024-02-21T01:50:14;12.23;;;4.60;;
5900;SDS011;2976;49.764;9.796;2024-02-21T01:52:41;25.13;;;5.13;;
5900;SDS011;2976;49.764;9.796;2024-02-21T01:55:11;22.00;;;4.23;;
5900;SDS011;2976;49.764;9.796;2024-02-21T01:57:38;18.23;;;4.40;;
5900;SDS011;2976;49.764;9.796;2024-02-21T02:00:07;19.17;;;4.07;;
5900;SDS011;2976;49.764;9.796;2024-02-21T02:02:35;9.70;;;3.90;;
5900;SDS011;2976;49.764;9.796;2024-02-21T02:05:02;13.13;;;3.87;;
5900;SDS011;2976;49.764;9.796;2024-02-21T02:07:29;8.20;;;3.50;;
5900;SDS011;2976;49.764;9.796;2024-02-21T02:09:54;12.27;;;4.17;;
5900;SDS011;2976;49.764;9.796;2024-02-21T02:12:20;17.30;;;5.30;;
5900;SDS011;2976;49.764;9.796;2024-02-21T02:14:46;11.30;;;4.30;;
5900;SDS011;2976;49.764;9.796;2024-02-21T02:17:11;13.37;;;3.83;;
5900;SDS011;2976;49.764;9.796;2024-02-21T02:19:37;15.53;;;3.90;;
5900;SDS011;2976;49.764;9.796;2024-02-21T02:22:09;9.20;;;4.20;;
5900;SDS011;2976;49.764;9.796;2024-02-21T02:24:38;10.00;;;4.00;;
5900;SDS011;2976;49.764;9.796;2024-02-21T02:27:03;13.27;;;4.07;;
5900;SDS011;2976;49.764;9.796;2024-02-21T02:29:31;11.70;;;4.10;;
5900;SDS011;2976;49.764;9.796;2024-02-21T02:31:57;6.17;;;3.40;;
5900;SDS011;2976;49.764;9.796;2024-02-21T02:34:23;16.10;;;4.40;;
5900;SDS011;2976;49.764;9.796;2024-02-21T02:36:49;8.53;;;3.10;;
5900;SDS011;2976;49.764;9.796;2024-02-21T02:39:14;14.90;;;4.37;;
5900;SDS011;2976;49.764;9.796;2024-02-21T02:41:40;14.87;;;4.80;;
5900;SDS011;2976;49.764;9.796;2024-02-21T02:44:05;10.33;;;3.60;;
5900;SDS011;2976;49.764;9.796;2024-02-21T02:46:31;12.53;;;4.87;;
5900;SDS011;2976;49.764;9.796;2024-02-21T02:48:56;16.80;;;4.57;;
5900;SDS011;2976;49.764;9.796;2024-02-21T02:51:22;15.07;;;4.47;;
5900;SDS011;2976;49.764;9.796;2024-02-21T02:53:47;10.40;;;4.53;;
5900;SDS011;2976;49.764;9.796;2024-02-21T02:56:16;16.07;;;4.30;;
5900;SDS011;2976;49.764;9.796;2024-02-21T02:58:44;12.20;;;3.67;;
5900;SDS011;2976;49.764;9.796;2024-02-21T03:01:10;22.03;;;4.90;;
5900;SDS011;2976;49.764;9.796;2024-02-21T03:03:35;8.37;;;4.47;;
5900;SDS011;2976;49.764;9.796;2024-02-21T03:06:01;15.67;;;5.03;;
5900;SDS011;2976;49.764;9.796;2024-02-21T03:08:27;12.63;;;5.00;;
5900;SDS011;2976;49.764;9.796;2024-02-21T03:10:52;14.10;;;4.40;;
5900;SDS011;2976;49.764;9.796;2024-02-21T03:13:18;15.50;;;6.27;;
5900;SDS011;2976;49.764;9.796;2024-02-21T03:15:44;9.27;;;3.60;;
5900;SDS011;2976;49.764;9.796;2024-02-21T03:18:09;10.93;;;4.47;;
5900;SDS011;2976;49.764;9.796;2024-02-21T03:20:35;7.63;;;4.50;;
5900;SDS011;2976;49.764;9.796;2024-02-21T03:23:00;19.23;;;5.57;;
5900;SDS011;2976;49.764;9.796;2024-02-21T03:25:26;15.60;;;5.23;;
5900;SDS011;2976;49.764;9.796;2024-02-21T03:27:51;14.47;;;4.70;;
5900;SDS011;2976;49.764;9.796;2024-02-21T03:30:17;16.43;;;5.00;;
5900;SDS011;2976;49.764;9.796;2024-02-21T03:32:42;15.27;;;5.20;;
5900;SDS011;2976;49.764;9.796;2024-02-21T03:35:08;13.10;;;4.77;;
5900;SDS011;2976;49.764;9.796;2024-02-21T03:37:34;13.70;;;5.37;;
5900;SDS011;2976;49.764;9.796;2024-02-21T03:39:59;13.33;;;4.57;;
5900;SDS011;2976;49.764;9.796;2024-02-21T03:42:25;9.33;;;4.43;;
5900;SDS011;2976;49.764;9.796;2024-02-21T03:44:50;14.37;;;5.37;;
5900;SDS011;2976;49.764;9.796;2024-02-21T03:47:16;14.53;;;5.60;;
5900;SDS011;2976;49.764;9.796;2024-02-21T03:49:41;12.80;;;5.20;;
5900;SDS011;2976;49.764;9.796;2024-02-21T03:52:07;10.33;;;4.90;;
5900;SDS011;2976;49.764;9.796;2024-02-21T03:54:33;14.93;;;4.67;;
5900;SDS011;2976;49.764;9.796;2024-02-21T03:56:59;19.70;;;4.83;;
5900;SDS011;2976;49.764;9.796;2024-02-21T03:59:24;11.50;;;4.77;;
5900;SDS011;2976;49.764;9.796;2024-02-21T04:01:53;16.53;;;5.53;;
5900;SDS011;2976;49.764;9.796;2024-02-21T04:04:20;12.00;;;4.83;;
5900;SDS011;2976;49.764;9.796;2024-02-21T04:06:46;14.90;;;5.13;;
5900;SDS011;2976;49.764;9.796;2024-02-21T04:09:15;21.70;;;5.90;;
5900;SDS011;2976;49.764;9.796;2024-02-21T04:11:41;12.43;;;4.40;;
5900;SDS011;2976;49.764;9.796;2024-02-21T04:14:06;16.03;;;4.43;;
5900;SDS011;2976;49.764;9.796;2024-02-21T04:16:32;17.00;;;5.07;;
5900;SDS011;2976;49.764;9.796;2024-02-21T04:18:58;24.30;;;5.30;;
5900;SDS011;2976;49.764;9.796;2024-02-21T04:21:23;12.03;;;3.70;;
5900;SDS011;2976;49.764;9.796;2024-02-21T04:23:49;21.47;;;5.00;;
5900;SDS011;2976;49.764;9.796;2024-02-21T04:26:14;10.80;;;5.10;;
5900;SDS011;2976;49.764;9.796;2024-02-21T04:28:40;14.00;;;4.33;;
5900;SDS011;2976;49.764;9.796;2024-02-21T04:31:05;24.93;;;5.67;;
5900;SDS011;2976;49.764;9.796;2024-02-21T04:33:31;12.70;;;5.00;;
5900;SDS011;2976;49.764;9.796;2024-02-21T04:35:56;15.33;;;5.03;;
5900;SDS011;2976;49.764;9.796;2024-02-21T04:38:23;11.40;;;5.27;;
5900;SDS011;2976;49.764;9.796;2024-02-21T04:40:49;16.50;;;7.10;;
5900;SDS011;2976;49.764;9.796;2024-02-21T04:43:14;18.80;;;5.50;;
5900;SDS011;2976;49.764;9.796;2024-02-21T04:45:40;12.23;;;4.90;;
5900;SDS011;2976;49.764;9.796;2024-02-21T04:48:05;16.93;;;5.70;;
5900;SDS011;2976;49.764;9.796;2024-02-21T04:50:31;21.93;;;5.43;;
5900;SDS011;2976;49.764;9.796;2024-02-21T04:52:57;17.80;;;5.00;;
5900;SDS011;2976;49.764;9.796;2024-02-21T04:55:22;13.70;;;5.30;;
5900;SDS011;2976;49.764;9.796;2024-02-21T04:57:48;7.90;;;4.87;;
5900;SDS011;2976;49.764;9.796;2024-02-21T05:00:13;14.80;;;5.97;;
5900;SDS011;2976;49.764;9.796;2024-02-21T05:02:39;15.10;;;5.90;;
5900;SDS011;2976;49.764;9.796;2024-02-21T05:05:05;16.40;;;5.07;;
5900;SDS011;2976;49.764;9.796;2024-02-21T05:07:30;11.77;;;5.80;;
5900;SDS011;2976;49.764;9.796;2024-02-21T05:09:56;17.40;;;4.53;;
5900;SDS011;2976;49.764;9.796;2024-02-21T05:12:21;16.63;;;4.70;;
5900;SDS011;2976;49.764;9.796;2024-02-21T05:14:47;16.97;;;4.97;;
5900;SDS011;2976;49.764;9.796;2024-02-21T05:17:12;22.00;;;6.17;;
5900;SDS011;2976;49.764;9.796;2024-02-21T05:19:38;14.73;;;5.93;;
5900;SDS011;2976;49.764;9.796;2024-02-21T05:22:04;15.80;;;6.70;;
5900;SDS011;2976;49.764;9.796;2024-02-21T05:24:29;13.13;;;5.30;;
5900;SDS011;2976;49.764;9.796;2024-02-21T05:26:55;10.77;;;6.53;;
5900;SDS011;2976;49.764;9.796;2024-02-21T05:29:20;15.43;;;5.60;;
5900;SDS011;2976;49.764;9.796;2024-02-21T05:34:21;8.23;;;5.57;;
5900;SDS011;2976;49.764;9.796;2024-02-21T05:36:47;14.33;;;5.47;;
5900;SDS011;2976;49.764;9.796;2024-02-21T05:39:14;30.97;;;6.77;;
5900;SDS011;2976;49.764;9.796;2024-02-21T05:41:40;21.93;;;5.77;;
5900;SDS011;2976;49.764;9.796;2024-02-21T05:44:05;27.53;;;8.07;;
5900;SDS011;2976;49.764;9.796;2024-02-21T05:46:31;11.33;;;6.23;;
5900;SDS011;2976;49.764;9.796;2024-02-21T05:48:57;10.53;;;5.23;;
5900;SDS011;2976;49.764;9.796;2024-02-21T05:51:22;15.27;;;6.57;;
5900;SDS011;2976;49.764;9.796;2024-02-21T05:53:48;21.90;;;5.60;;
5900;SDS011;2976;49.764;9.796;2024-02-21T05:56:14;16.17;;;6.10;;
5900;SDS011;2976;49.764;9.796;2024-02-21T05:58:40;14.23;;;6.83;;
5900;SDS011;2976;49.764;9.796;2024-02-21T06:01:07;17.03;;;6.60;;
5900;SDS011;2976;49.764;9.796;2024-02-21T06:03:33;10.27;;;5.27;;
5900;SDS011;2976;49.764;9.796;2024-02-21T06:06:02;9.27;;;6.53;;
5900;SDS011;2976;49.764;9.796;2024-02-21T06:08:28;14.27;;;6.80;;
5900;SDS011;2976;49.764;9.796;2024-02-21T06:10:53;15.63;;;6.37;;
5900;SDS011;2976;49.764;9.796;2024-02-21T06:13:25;20.17;;;7.47;;
5900;SDS011;2976;49.764;9.796;2024-02-21T06:15:51;14.83;;;7.13;;
5900;SDS011;2976;49.764;9.796;2024-02-21T06:18:18;21.43;;;6.97;;
5900;SDS011;2976;49.764;9.796;2024-02-21T06:20:44;14.13;;;7.00;;
5900;SDS011;2976;49.764;9.796;2024-02-21T06:23:11;23.87;;;8.00;;
5900;SDS011;2976;49.764;9.796;2024-02-21T06:25:37;25.77;;;7.50;;
5900;SDS011;2976;49.764;9.796;2024-02-21T06:28:03;11.57;;;6.67;;
5900;SDS011;2976;49.764;9.796;2024-02-21T06:30:29;15.30;;;7.80;;
5900;SDS011;2976;49.764;9.796;2024-02-21T06:32:55;17.73;;;6.87;;
5900;SDS011;2976;49.764;9.796;2024-02-21T06:35:21;14.93;;;6.77;;
5900;SDS011;2976;49.764;9.796;2024-02-21T06:37:46;21.10;;;8.70;;
5900;SDS011;2976;49.764;9.796;2024-02-21T06:40:16;11.90;;;6.00;;
5900;SDS011;2976;49.764;9.796;2024-02-21T06:42:42;14.50;;;7.00;;
5900;SDS011;2976;49.764;9.796;2024-02-21T06:45:07;21.90;;;10.37;;
5900;SDS011;2976;49.764;9.796;2024-02-21T06:47:33;13.50;;;6.87;;
5900;SDS011;2976;49.764;9.796;2024-02-21T06:49:58;13.93;;;6.93;;
5900;SDS011;2976;49.764;9.796;2024-02-21T06:52:24;17.80;;;6.80;;
5900;SDS011;2976;49.764;9.796;2024-02-21T06:54:50;17.47;;;7.20;;
5900;SDS011;2976;49.764;9.796;2024-02-21T06:57:16;14.20;;;7.23;;
5900;SDS011;2976;49.764;9.796;2024-02-21T06:59:41;17.57;;;6.97;;
5900;SDS011;2976;49.764;9.796;2024-02-21T07:02:07;17.40;;;6.93;;
5900;SDS011;2976;49.764;9.796;2024-02-21T07:04:33;22.37;;;6.50;;
5900;SDS011;2976;49.764;9.796;2024-02-21T07:06:59;13.70;;;6.17;;
5900;SDS011;2976;49.764;9.796;2024-02-21T07:09:25;20.30;;;6.20;;
5900;SDS011;2976;49.764;9.796;2024-02-21T07:11:51;11.50;;;6.20;;
5900;SDS011;2976;49.764;9.796;2024-02-21T07:14:17;11.83;;;5.13;;
5900;SDS011;2976;49.764;9.796;2024-02-21T07:16:43;17.03;;;5.80;;
5900;SDS011;2976;49.764;9.796;2024-02-21T07:19:09;10.40;;;5.37;;
5900;SDS011;2976;49.764;9.796;2024-02-21T07:21:34;23.13;;;6.03;;
5900;SDS011;2976;49.764;9.796;2024-02-21T07:24:02;13.93;;;4.70;;
5900;SDS011;2976;49.764;9.796;2024-02-21T07:26:29;14.90;;;5.97;;
5900;SDS011;2976;49.764;9.796;2024-02-21T07:28:54;11.47;;;5.10;;
5900;SDS011;2976;49.764;9.796;2024-02-21T07:31:20;11.97;;;4.73;;
5900;SDS011;2976;49.764;9.796;2024-02-21T07:33:45;12.73;;;5.07;;
5900;SDS011;2976;49.764;9.796;2024-02-21T07:36:11;17.40;;;5.10;;
5900;SDS011;2976;49.764;9.796;2024-02-21T07:38:36;27.30;;;5.90;;
5900;SDS011;2976;49.764;9.796;2024-02-21T07:41:02;14.77;;;5.70;;
5900;SDS011;2976;49.764;9.796;2024-02-21T07:43:29;15.67;;;6.20;;
5900;SDS011;2976;49.764;9.796;2024-02-21T07:45:54;11.80;;;5.97;;
5900;SDS011;2976;49.764;9.796;2024-02-21T07:48:20;9.20;;;5.07;;
5900;SDS011;2976;49.764;9.796;2024-02-21T07:50:49;11.90;;;5.20;;
5900;SDS011;2976;49.764;9.796;2024-02-21T07:53:15;20.10;;;4.90;;
5900;SDS011;2976;49.764;9.796;2024-02-21T07:55:41;17.13;;;5.47;;
5900;SDS011;2976;49.764;9.796;2024-02-21T07:58:06;18.23;;;4.80;;
5900;SDS011;2976;49.764;9.796;2024-02-21T08:00:32;13.90;;;5.47;;
5900;SDS011;2976;49.764;9.796;2024-02-21T08:02:58;16.03;;;6.03;;
5900;SDS011;2976;49.764;9.796;2024-02-21T08:05:23;23.63;;;5.70;;
5900;SDS011;2976;49.764;9.796;2024-02-21T08:07:49;17.20;;;5.10;;
5900;SDS011;2976;49.764;9.796;2024-02-21T08:10:15;13.80;;;6.33;;
5900;SDS011;2976;49.764;9.796;2024-02-21T08:12:40;16.53;;;4.50;;
5900;SDS011;2976;49.764;9.796;2024-02-21T08:15:06;14.10;;;5.13;;
5900;SDS011;2976;49.764;9.796;2024-02-21T08:17:36;10.00;;;4.87;;
5900;SDS011;2976;49.764;9.796;2024-02-21T08:20:02;18.50;;;4.47;;
5900;SDS011;2976;49.764;9.796;2024-02-21T08:22:29;11.03;;;3.97;;
5900;SDS011;2976;49.764;9.796;2024-02-21T08:24:55;9.53;;;4.30;;
5900;SDS011;2976;49.764;9.796;2024-02-21T08:27:20;18.27;;;3.67;;
5900;SDS011;2976;49.764;9.796;2024-02-21T08:29:46;9.80;;;4.10;;
5900;SDS011;2976;49.764;9.796;2024-02-21T08:32:11;7.97;;;3.27;;
5900;SDS011;2976;49.764;9.796;2024-02-21T08:34:37;8.70;;;3.73;;
5900;SDS011;2976;49.764;9.796;2024-02-21T08:37:02;9.20;;;4.17;;
5900;SDS011;2976;49.764;9.796;2024-02-21T08:39:28;8.90;;;3.17;;
5900;SDS011;2976;49.764;9.796;2024-02-21T08:41:55;14.03;;;3.97;;
5900;SDS011;2976;49.764;9.796;2024-02-21T08:44:24;19.43;;;3.67;;
5900;SDS011;2976;49.764;9.796;2024-02-21T08:46:53;15.43;;;3.97;;
5900;SDS011;2976;49.764;9.796;2024-02-21T08:49:18;7.57;;;2.63;;
5900;SDS011;2976;49.764;9.796;2024-02-21T08:51:44;8.93;;;3.27;;
5900;SDS011;2976;49.764;9.796;2024-02-21T08:54:10;12.90;;;3.63;;
5900;SDS011;2976;49.764;9.796;2024-02-21T08:56:36;11.67;;;3.53;;
5900;SDS011;2976;49.764;9.796;2024-02-21T08:59:02;11.27;;;3.30;;
5900;SDS011;2976;49.764;9.796;2024-02-21T09:01:27;6.20;;;3.23;;
5900;SDS011;2976;49.764;9.796;2024-02-21T09:03:53;11.10;;;3.53;;
5900;SDS011;2976;49.764;9.796;2024-02-21T09:06:21;12.37;;;4.97;;
5900;SDS011;2976;49.764;9.796;2024-02-21T09:08:47;19.03;;;8.17;;
5900;SDS011;2976;49.764;9.796;2024-02-21T09:11:13;13.10;;;4.53;;
5900;SDS011;2976;49.764;9.796;2024-02-21T09:13:38;16.50;;;4.10;;
5900;SDS011;2976;49.764;9.796;2024-02-21T09:16:04;9.63;;;3.90;;
5900;SDS011;2976;49.764;9.796;2024-02-21T09:18:30;6.70;;;3.00;;
5900;SDS011;2976;49.764;9.796;2024-02-21T09:20:56;6.93;;;3.23;;
5900;SDS011;2976;49.764;9.796;2024-02-21T09:23:24;21.67;;;3.70;;
5900;SDS011;2976;49.764;9.796;2024-02-21T09:25:49;11.93;;;3.10;;
5900;SDS011;2976;49.764;9.796;2024-02-21T09:28:15;6.70;;;3.07;;
5900;SDS011;2976;49.764;9.796;2024-02-21T09:30:40;7.23;;;3.13;;
5900;SDS011;2976;49.764;9.796;2024-02-21T09:33:06;10.60;;;3.60;;
5900;SDS011;2976;49.764;9.796;2024-02-21T09:35:32;19.87;;;12.20;;
5900;SDS011;2976;49.764;9.796;2024-02-21T09:37:58;20.40;;;4.00;;
5900;SDS011;2976;49.764;9.796;2024-02-21T09:40:24;9.83;;;3.30;;
5900;SDS011;2976;49.764;9.796;2024-02-21T09:42:50;8.70;;;3.30;;
5900;SDS011;2976;49.764;9.796;2024-02-21T09:45:26;3.13;;;2.83;;
5900;SDS011;2976;49.764;9.796;2024-02-21T09:50:57;15.90;;;3.00;;
5900;SDS011;2976;49.764;9.796;2024-02-21T09:53:24;8.97;;;2.50;;
5900;SDS011;2976;49.764;9.796;2024-02-21T09:55:51;6.03;;;2.47;;
5900;SDS011;2976;49.764;9.796;2024-02-21T09:58:17;11.83;;;2.70;;
5900;SDS011;2976;49.764;9.796;2024-02-21T10:00:43;13.77;;;3.33;;
5900;SDS011;2976;49.764;9.796;2024-02-21T10:03:08;5.07;;;2.70;;
5900;SDS011;2976;49.764;9.796;2024-02-21T10:05:35;8.80;;;2.70;;
5900;SDS011;2976;49.764;9.796;2024-02-21T10:08:01;12.07;;;2.60;;
5900;SDS011;2976;49.764;9.796;2024-02-21T10:10:27;5.80;;;2.27;;
5900;SDS011;2976;49.764;9.796;2024-02-21T10:12:54;5.60;;;2.60;;
5900;SDS011;2976;49.764;9.796;2024-02-21T10:15:21;17.73;;;2.57;;
5900;SDS011;2976;49.764;9.796;2024-02-21T10:17:59;15.10;;;2.37;;
5900;SDS011;2976;49.764;9.796;2024-02-21T10:20:26;8.57;;;3.13;;
5900;SDS011;2976;49.764;9.796;2024-02-21T10:23:04;4.13;;;2.27;;
5900;SDS011;2976;49.764;9.796;2024-02-21T10:25:34;14.67;;;3.60;;
5900;SDS011;2976;49.764;9.796;2024-02-21T10:28:01;6.80;;;2.67;;
5900;SDS011;2976;49.764;9.796;2024-02-21T12:04:49;6.73;;;1.87;;
5900;SDS011;2976;49.764;9.796;2024-02-21T12:07:14;5.37;;;1.63;;
5900;SDS011;2976;49.764;9.796;2024-02-21T12:09:41;6.60;;;1.93;;
5900;SDS011;2976;49.764;9.796;2024-02-21T12:12:07;10.33;;;2.47;;
5900;SDS011;2976;49.764;9.796;2024-02-21T12:14:33;6.70;;;2.43;;
5900;SDS011;2976;49.764;9.796;2024-02-21T12:17:00;9.47;;;2.20;;
5900;SDS011;2976;49.764;9.796;2024-02-21T12:19:28;6.93;;;1.90;;
5900;SDS011;2976;49.764;9.796;2024-02-21T12:21:54;2.93;;;1.57;;
5900;SDS011;2976;49.764;9.796;2024-02-21T12:24:23;7.40;;;1.97;;
5900;SDS011;2976;49.764;9.796;2024-02-21T12:26:52;5.00;;;1.53;;
5900;SDS011;2976;49.764;9.796;2024-02-21T12:29:22;5.87;;;1.50;;
5900;SDS011;2976;49.764;9.796;2024-02-21T12:31:49;8.03;;;1.47;;
5900;SDS011;2976;49.764;9.796;2024-02-21T12:34:15;3.10;;;1.50;;
5900;SDS011;2976;49.764;9.796;2024-02-21T12:36:42;7.10;;;2.40;;
5900;SDS011;2976;49.764;9.796;2024-02-21T12:39:08;3.43;;;1.60;;
5900;SDS011;2976;49.764;9.796;2024-02-21T12:41:37;8.27;;;1.27;;
5900;SDS011;2976;49.764;9.796;2024-02-21T12:44:04;8.53;;;1.50;;
5900;SDS011;2976;49.764;9.796;2024-02-21T12:46:32;3.10;;;1.50;;
5900;SDS011;2976;49.764;9.796;2024-02-21T12:48:59;5.23;;;1.77;;
5900;SDS011;2976;49.764;9.796;2024-02-21T12:51:25;7.73;;;1.60;;
5900;SDS011;2976;49.764;9.796;2024-02-21T12:53:51;4.20;;;1.73;;
5900;SDS011;2976;49.764;9.796;2024-02-21T12:56:16;11.70;;;1.90;;
5900;SDS011;2976;49.764;9.796;2024-02-21T12:58:42;3.67;;;1.70;;
5900;SDS011;2976;49.764;9.796;2024-02-21T13:01:07;3.63;;;1.23;;
5900;SDS011;2976;49.764;9.796;2024-02-21T13:03:34;8.23;;;1.40;;
5900;SDS011;2976;49.764;9.796;2024-02-21T13:05:59;4.00;;;1.30;;
5900;SDS011;2976;49.764;9.796;2024-02-21T13:08:25;5.83;;;2.67;;
5900;SDS011;2976;49.764;9.796;2024-02-21T13:10:50;2.10;;;1.40;;
5900;SDS011;2976;49.764;9.796;2024-02-21T13:13:16;12.97;;;1.70;;
5900;SDS011;2976;49.764;9.796;2024-02-21T13:15:41;11.53;;;2.60;;
5900;SDS011;2976;49.764;9.796;2024-02-21T13:18:08;2.97;;;1.20;;
5900;SDS011;2976;49.764;9.796;2024-02-21T13:20:34;8.40;;;1.37;;
5900;SDS011;2976;49.764;9.796;2024-02-21T13:23:00;10.70;;;2.73;;
5900;SDS011;2976;49.764;9.796;2024-02-21T13:25:26;8.80;;;1.90;;
5900;SDS011;2976;49.764;9.796;2024-02-21T13:27:51;7.20;;;3.03;;
5900;SDS011;2976;49.764;9.796;2024-02-21T13:30:17;9.47;;;1.50;;
5900;SDS011;2976;49.764;9.796;2024-02-21T13:32:43;4.83;;;1.57;;
5900;SDS011;2976;49.764;9.796;2024-02-21T13:35:11;4.77;;;1.30;;
5900;SDS011;2976;49.764;9.796;2024-02-21T13:37:37;7.70;;;2.20;;
5900;SDS011;2976;49.764;9.796;2024-02-21T13:40:03;3.13;;;1.70;;
5900;SDS011;2976;49.764;9.796;2024-02-21T13:42:29;4.13;;;1.40;;
5900;SDS011;2976;49.764;9.796;2024-02-21T13:44:55;4.23;;;1.70;;
5900;SDS011;2976;49.764;9.796;2024-02-21T13:47:20;3.40;;;1.10;;
5900;SDS011;2976;49.764;9.796;2024-02-21T13:49:46;11.07;;;1.63;;
5900;SDS011;2976;49.764;9.796;2024-02-21T13:52:12;6.33;;;1.40;;
5900;SDS011;2976;49.764;9.796;2024-02-21T13:54:38;4.07;;;1.20;;
5900;SDS011;2976;49.764;9.796;2024-02-21T13:57:03;2.70;;;1.30;;
5900;SDS011;2976;49.764;9.796;2024-02-21T13:59:29;2.30;;;1.20;;
5900;SDS011;2976;49.764;9.796;2024-02-21T14:01:55;9.93;;;1.30;;
5900;SDS011;2976;49.764;9.796;2024-02-21T14:04:21;2.43;;;1.10;;
5900;SDS011;2976;49.764;9.796;2024-02-21T14:06:47;2.13;;;1.20;;
5900;SDS011;2976;49.764;9.796;2024-02-21T14:09:12;6.30;;;1.33;;
5900;SDS011;2976;49.764;9.796;2024-02-21T14:11:38;2.50;;;1.50;;
5900;SDS011;2976;49.764;9.796;2024-02-21T14:14:05;8.17;;;2.50;;
5900;SDS011;2976;49.764;9.796;2024-02-21T14:16:31;8.13;;;1.40;;
5900;SDS011;2976;49.764;9.796;2024-02-21T14:18:57;1.83;;;1.10;;
5900;SDS011;2976;49.764;9.796;2024-02-21T14:21:22;8.33;;;1.90;;
5900;SDS011;2976;49.764;9.796;2024-02-21T14:23:48;4.50;;;1.50;;
5900;SDS011;2976;49.764;9.796;2024-02-21T14:26:13;6.00;;;1.50;;
5900;SDS011;2976;49.764;9.796;2024-02-21T14:28:39;2.63;;;1.40;;
5900;SDS011;2976;49.764;9.796;2024-02-21T14:31:06;4.40;;;1.43;;
5900;SDS011;2976;49.764;9.796;2024-02-21T14:33:34;4.10;;;1.60;;
5900;SDS011;2976;49.764;9.796;2024-02-21T14:36:07;10.87;;;1.43;;
5900;SDS011;2976;49.764;9.796;2024-02-21T14:38:33;12.73;;;1.90;;
5900;SDS011;2976;49.764;9.796;2024-02-21T14:41:06;1.90;;;0.97;;
5900;SDS011;2976;49.764;9.796;2024-02-21T14:43:32;6.67;;;1.50;;
5900;SDS011;2976;49.764;9.796;2024-02-21T14:45:57;3.50;;;1.20;;
5900;SDS011;2976;49.764;9.796;2024-02-21T14:48:23;4.60;;;1.50;;
5900;SDS011;2976;49.764;9.796;2024-02-21T14:50:48;4.10;;;1.30;;
5900;SDS011;2976;49.764;9.796;2024-02-21T14:53:14;5.53;;;1.30;;
5900;SDS011;2976;49.764;9.796;2024-02-21T14:55:40;3.73;;;1.50;;
5900;SDS011;2976;49.764;9.796;2024-02-21T14:58:08;4.90;;;1.70;;
5900;SDS011;2976;49.764;9.796;2024-02-21T15:00:34;5.00;;;1.27;;
5900;SDS011;2976;49.764;9.796;2024-02-21T15:03:00;7.30;;;1.13;;
5900;SDS011;2976;49.764;9.796;2024-02-21T15:05:25;3.43;;;1.63;;
5900;SDS011;2976;49.764;9.796;2024-02-21T15:07:51;1.53;;;1.33;;
5900;SDS011;2976;49.764;9.796;2024-02-21T15:10:17;6.00;;;1.20;;
5900;SDS011;2976;49.764;9.796;2024-02-21T15:12:44;3.40;;;1.20;;
5900;SDS011;2976;49.764;9.796;2024-02-21T15:15:13;7.00;;;1.70;;
5900;SDS011;2976;49.764;9.796;2024-02-21T15:17:39;7.33;;;1.27;;
5900;SDS011;2976;49.764;9.796;2024-02-21T15:20:05;3.00;;;1.50;;
5900;SDS011;2976;49.764;9.796;2024-02-21T15:22:33;6.43;;;1.40;;
5900;SDS011;2976;49.764;9.796;2024-02-21T15:25:00;12.43;;;1.37;;
5900;SDS011;2976;49.764;9.796;2024-02-21T15:27:26;3.60;;;0.90;;
5900;SDS011;2976;49.764;9.796;2024-02-21T15:29:53;7.70;;;1.53;;
5900;SDS011;2976;49.764;9.796;2024-02-21T15:32:18;6.23;;;1.37;;
5900;SDS011;2976;49.764;9.796;2024-02-21T15:34:45;2.30;;;1.10;;
5900;SDS011;2976;49.764;9.796;2024-02-21T15:37:10;4.47;;;1.10;;
5900;SDS011;2976;49.764;9.796;2024-02-21T15:39:36;4.33;;;1.13;;
5900;SDS011;2976;49.764;9.796;2024-02-21T15:42:02;6.93;;;1.63;;
5900;SDS011;2976;49.764;9.796;2024-02-21T15:44:28;5.07;;;1.50;;
5900;SDS011;2976;49.764;9.796;2024-02-21T15:46:53;3.53;;;1.40;;
5900;SDS011;2976;49.764;9.796;2024-02-21T15:49:19;3.63;;;1.70;;
5900;SDS011;2976;49.764;9.796;2024-02-21T15:51:44;8.20;;;1.73;;
5900;SDS011;2976;49.764;9.796;2024-02-21T15:54:10;5.87;;;1.83;;
5900;SDS011;2976;49.764;9.796;2024-02-21T15:56:36;3.20;;;1.67;;
5900;SDS011;2976;49.764;9.796;2024-02-21T15:59:01;4.27;;;1.63;;
5900;SDS011;2976;49.764;9.796;2024-02-21T16:01:28;3.97;;;1.93;;
5900;SDS011;2976;49.764;9.796;2024-02-21T16:03:58;3.03;;;1.80;;
5900;SDS011;2976;49.764;9.796;2024-02-21T16:06:24;4.47;;;1.73;;
5900;SDS011;2976;49.764;9.796;2024-02-21T16:08:49;2.97;;;1.50;;
5900;SDS011;2976;49.764;9.796;2024-02-21T16:11:15;8.90;;;2.20;;
5900;SDS011;2976;49.764;9.796;2024-02-21T16:13:42;3.23;;;1.47;;
5900;SDS011;2976;49.764;9.796;2024-02-21T16:16:08;4.47;;;1.40;;
5900;SDS011;2976;49.764;9.796;2024-02-21T16:18:34;7.40;;;1.70;;
5900;SDS011;2976;49.764;9.796;2024-02-21T16:21:00;5.27;;;2.30;;
5900;SDS011;2976;49.764;9.796;2024-02-21T16:23:25;3.63;;;2.17;;
5900;SDS011;2976;49.764;9.796;2024-02-21T16:25:51;2.47;;;2.27;;
5900;SDS011;2976;49.764;9.796;2024-02-21T16:28:17;5.70;;;2.57;;
5900;SDS011;2976;49.764;9.796;2024-02-21T16:30:42;9.87;;;2.50;;
5900;SDS011;2976;49.764;9.796;2024-02-21T16:33:08;4.23;;;1.73;;
5900;SDS011;2976;49.764;9.796;2024-02-21T16:35:35;4.00;;;1.90;;
5900;SDS011;2976;49.764;9.796;2024-02-21T16:38:02;6.90;;;1.73;;
5900;SDS011;2976;49.764;9.796;2024-02-21T16:40:29;6.53;;;1.80;;